Altoona, Florida
Current Conditions -  °F | °C
As of 12:53 AM on Thursday 27 Nov 2014 (Local Time) from KLEE Reporting Station
Clear Clear  
Wind Chill: 50°   Ceiling: Unl
Heat Index: 50°   Visibility: 10mi
Dew Point: 43°   Wind: 8mph
Humidity: 77%   Direction: 300°WNW
Pressure: 30.24"   Gusts: NA
Location:  28.97°N, 81.65°W
Report Text: KLEE 270553Z AUTO 30007KT 10SM CLR 10/06 A3024 RMK AO2 SLP240 T01000061 10133 20094 53009
Loading
Personal Weather Stations






























Interactive Weather Map New forecast layout! Learn more

10-Day Weather Forecast

Advertisements
Track Severe Weather on mobile